sensor_id;sensor_type;location;lat;lon;timestamp;temperature;humidity
23618;DHT22;18207;32.078;34.818;2024-01-10T00:01:57;22.90;37.10
23618;DHT22;18207;32.078;34.818;2024-01-10T00:04:27;22.90;37.10
23618;DHT22;18207;32.078;34.818;2024-01-10T00:06:57;22.80;37.00
23618;DHT22;18207;32.078;34.818;2024-01-10T00:09:28;22.80;37.10
23618;DHT22;18207;32.078;34.818;2024-01-10T00:11:58;22.80;37.20
23618;DHT22;18207;32.078;34.818;2024-01-10T00:14:28;22.80;37.30
23618;DHT22;18207;32.078;34.818;2024-01-10T00:16:58;22.70;37.20
23618;DHT22;18207;32.078;34.818;2024-01-10T00:19:28;22.70;37.20
23618;DHT22;18207;32.078;34.818;2024-01-10T00:21:58;22.70;37.20
23618;DHT22;18207;32.078;34.818;2024-01-10T00:24:30;22.70;37.20
23618;DHT22;18207;32.078;34.818;2024-01-10T00:27:00;22.70;37.20
23618;DHT22;18207;32.078;34.818;2024-01-10T00:29:30;22.70;37.30
23618;DHT22;18207;32.078;34.818;2024-01-10T00:32:00;22.70;37.30
23618;DHT22;18207;32.078;34.818;2024-01-10T00:34:30;22.70;37.30
23618;DHT22;18207;32.078;34.818;2024-01-10T00:36:59;22.70;37.40
23618;DHT22;18207;32.078;34.818;2024-01-10T00:39:31;22.70;37.30
23618;DHT22;18207;32.078;34.818;2024-01-10T00:42:01;22.70;37.90
23618;DHT22;18207;32.078;34.818;2024-01-10T00:44:31;22.70;37.30
23618;DHT22;18207;32.078;34.818;2024-01-10T00:47:00;22.70;37.30
23618;DHT22;18207;32.078;34.818;2024-01-10T00:49:30;22.70;37.40
23618;DHT22;18207;32.078;34.818;2024-01-10T00:52:00;22.70;37.40
23618;DHT22;18207;32.078;34.818;2024-01-10T00:54:32;22.70;37.40
23618;DHT22;18207;32.078;34.818;2024-01-10T00:57:02;22.70;37.40
23618;DHT22;18207;32.078;34.818;2024-01-10T00:59:32;22.70;37.40
23618;DHT22;18207;32.078;34.818;2024-01-10T01:02:02;22.70;37.40
23618;DHT22;18207;32.078;34.818;2024-01-10T01:04:32;22.70;38.00
23618;DHT22;18207;32.078;34.818;2024-01-10T01:07:03;22.70;37.30
23618;DHT22;18207;32.078;34.818;2024-01-10T01:09:34;22.70;37.30
23618;DHT22;18207;32.078;34.818;2024-01-10T01:12:05;22.70;37.30
23618;DHT22;18207;32.078;34.818;2024-01-10T01:14:35;22.60;37.20
23618;DHT22;18207;32.078;34.818;2024-01-10T01:17:05;22.70;37.30
23618;DHT22;18207;32.078;34.818;2024-01-10T01:19:35;22.70;37.30
23618;DHT22;18207;32.078;34.818;2024-01-10T01:22:05;22.70;37.30
23618;DHT22;18207;32.078;34.818;2024-01-10T01:24:37;22.70;37.30
23618;DHT22;18207;32.078;34.818;2024-01-10T01:27:06;22.60;37.20
23618;DHT22;18207;32.078;34.818;2024-01-10T01:29:36;22.60;37.10
23618;DHT22;18207;32.078;34.818;2024-01-10T01:32:06;22.60;37.10
23618;DHT22;18207;32.078;34.818;2024-01-10T01:34:36;22.60;37.10
23618;DHT22;18207;32.078;34.818;2024-01-10T01:37:06;22.60;37.10
23618;DHT22;18207;32.078;34.818;2024-01-10T01:39:38;22.60;37.10
23618;DHT22;18207;32.078;34.818;2024-01-10T01:42:07;22.60;37.10
23618;DHT22;18207;32.078;34.818;2024-01-10T01:44:38;22.60;37.10
23618;DHT22;18207;32.078;34.818;2024-01-10T01:47:07;22.60;37.10
23618;DHT22;18207;32.078;34.818;2024-01-10T01:49:38;22.50;37.00
23618;DHT22;18207;32.078;34.818;2024-01-10T01:52:10;22.60;37.10
23618;DHT22;18207;32.078;34.818;2024-01-10T01:54:43;22.50;37.10
23618;DHT22;18207;32.078;34.818;2024-01-10T01:57:12;22.50;37.10
23618;DHT22;18207;32.078;34.818;2024-01-10T01:59:42;22.50;37.10
23618;DHT22;18207;32.078;34.818;2024-01-10T02:02:13;22.50;37.10
23618;DHT22;18207;32.078;34.818;2024-01-10T02:04:46;22.50;37.10
23618;DHT22;18207;32.078;34.818;2024-01-10T02:07:16;22.50;37.00
23618;DHT22;18207;32.078;34.818;2024-01-10T02:09:48;22.50;37.00
23618;DHT22;18207;32.078;34.818;2024-01-10T02:12:18;22.50;36.90
23618;DHT22;18207;32.078;34.818;2024-01-10T02:14:48;22.50;36.90
23618;DHT22;18207;32.078;34.818;2024-01-10T02:17:18;22.50;36.90
23618;DHT22;18207;32.078;34.818;2024-01-10T02:19:48;22.50;36.90
23618;DHT22;18207;32.078;34.818;2024-01-10T02:22:20;22.50;36.90
23618;DHT22;18207;32.078;34.818;2024-01-10T02:24:54;22.40;36.80
23618;DHT22;18207;32.078;34.818;2024-01-10T02:27:24;22.50;36.90
23618;DHT22;18207;32.078;34.818;2024-01-10T02:29:55;22.40;36.80
23618;DHT22;18207;32.078;34.818;2024-01-10T02:32:27;22.40;36.80
23618;DHT22;18207;32.078;34.818;2024-01-10T02:34:57;22.40;36.70
23618;DHT22;18207;32.078;34.818;2024-01-10T02:37:27;22.40;36.80
23618;DHT22;18207;32.078;34.818;2024-01-10T02:39:58;22.40;36.70
23618;DHT22;18207;32.078;34.818;2024-01-10T02:42:28;22.30;36.70
23618;DHT22;18207;32.078;34.818;2024-01-10T02:44:58;22.30;36.70
23618;DHT22;18207;32.078;34.818;2024-01-10T02:47:28;22.30;36.70
23618;DHT22;18207;32.078;34.818;2024-01-10T02:49:57;22.30;36.70
23618;DHT22;18207;32.078;34.818;2024-01-10T02:52:27;22.30;36.70
23618;DHT22;18207;32.078;34.818;2024-01-10T02:54:59;22.30;36.70
23618;DHT22;18207;32.078;34.818;2024-01-10T02:57:29;22.30;36.70
23618;DHT22;18207;32.078;34.818;2024-01-10T02:59:59;22.30;36.70
23618;DHT22;18207;32.078;34.818;2024-01-10T03:02:28;22.30;36.60
23618;DHT22;18207;32.078;34.818;2024-01-10T03:04:58;22.30;36.60
23618;DHT22;18207;32.078;34.818;2024-01-10T03:07:29;22.30;36.60
23618;DHT22;18207;32.078;34.818;2024-01-10T03:10:00;22.30;36.60
23618;DHT22;18207;32.078;34.818;2024-01-10T03:12:31;22.30;36.50
23618;DHT22;18207;32.078;34.818;2024-01-10T03:15:05;22.30;36.50
23618;DHT22;18207;32.078;34.818;2024-01-10T03:17:35;22.30;36.50
23618;DHT22;18207;32.078;34.818;2024-01-10T03:20:07;22.30;36.50
23618;DHT22;18207;32.078;34.818;2024-01-10T03:22:43;22.30;36.40
23618;DHT22;18207;32.078;34.818;2024-01-10T03:25:15;22.30;36.50
23618;DHT22;18207;32.078;34.818;2024-01-10T03:27:45;22.30;36.40
23618;DHT22;18207;32.078;34.818;2024-01-10T03:30:15;22.20;36.30
23618;DHT22;18207;32.078;34.818;2024-01-10T03:32:47;22.20;36.30
23618;DHT22;18207;32.078;34.818;2024-01-10T03:35:17;22.20;36.20
23618;DHT22;18207;32.078;34.818;2024-01-10T03:37:47;22.20;36.20
23618;DHT22;18207;32.078;34.818;2024-01-10T03:40:18;22.20;36.10
23618;DHT22;18207;32.078;34.818;2024-01-10T03:42:48;22.20;36.00
23618;DHT22;18207;32.078;34.818;2024-01-10T03:45:18;22.20;36.10
23618;DHT22;18207;32.078;34.818;2024-01-10T03:47:50;22.20;36.00
23618;DHT22;18207;32.078;34.818;2024-01-10T03:50:20;22.10;35.90
23618;DHT22;18207;32.078;34.818;2024-01-10T03:52:50;22.10;35.90
23618;DHT22;18207;32.078;34.818;2024-01-10T03:55:22;22.10;35.90
23618;DHT22;18207;32.078;34.818;2024-01-10T03:57:51;22.10;35.90
23618;DHT22;18207;32.078;34.818;2024-01-10T04:00:22;22.10;35.90
23618;DHT22;18207;32.078;34.818;2024-01-10T04:02:58;22.10;35.90
23618;DHT22;18207;32.078;34.818;2024-01-10T04:05:29;22.10;35.90
23618;DHT22;18207;32.078;34.818;2024-01-10T04:07:59;22.10;35.80
23618;DHT22;18207;32.078;34.818;2024-01-10T04:10:31;22.10;35.90
23618;DHT22;18207;32.078;34.818;2024-01-10T04:13:01;22.10;35.80
23618;DHT22;18207;32.078;34.818;2024-01-10T04:15:30;22.10;35.80
23618;DHT22;18207;32.078;34.818;2024-01-10T04:18:00;22.10;35.80
23618;DHT22;18207;32.078;34.818;2024-01-10T04:20:30;22.10;35.80
23618;DHT22;18207;32.078;34.818;2024-01-10T04:23:00;22.10;35.80
23618;DHT22;18207;32.078;34.818;2024-01-10T04:25:32;22.10;35.80
23618;DHT22;18207;32.078;34.818;2024-01-10T04:28:02;22.10;35.80
23618;DHT22;18207;32.078;34.818;2024-01-10T04:30:32;22.10;35.80
23618;DHT22;18207;32.078;34.818;2024-01-10T04:33:02;22.10;35.80
23618;DHT22;18207;32.078;34.818;2024-01-10T04:35:32;22.00;35.70
23618;DHT22;18207;32.078;34.818;2024-01-10T04:38:03;22.00;35.60
23618;DHT22;18207;32.078;34.818;2024-01-10T04:40:35;22.00;35.50
23618;DHT22;18207;32.078;34.818;2024-01-10T04:43:04;22.00;35.50
23618;DHT22;18207;32.078;34.818;2024-01-10T04:45:34;22.00;35.40
23618;DHT22;18207;32.078;34.818;2024-01-10T04:48:05;22.00;35.30
23618;DHT22;18207;32.078;34.818;2024-01-10T04:50:35;22.00;35.30
23618;DHT22;18207;32.078;34.818;2024-01-10T04:53:05;22.00;35.20
23618;DHT22;18207;32.078;34.818;2024-01-10T04:55:36;21.90;35.10
23618;DHT22;18207;32.078;34.818;2024-01-10T04:58:06;21.90;35.10
23618;DHT22;18207;32.078;34.818;2024-01-10T05:00:36;21.90;35.10
23618;DHT22;18207;32.078;34.818;2024-01-10T05:03:06;21.90;35.60
23618;DHT22;18207;32.078;34.818;2024-01-10T05:05:36;21.90;34.90
23618;DHT22;18207;32.078;34.818;2024-01-10T05:08:06;21.90;34.90
23618;DHT22;18207;32.078;34.818;2024-01-10T05:10:38;21.90;34.90
23618;DHT22;18207;32.078;34.818;2024-01-10T05:13:08;21.90;34.80
23618;DHT22;18207;32.078;34.818;2024-01-10T05:15:38;21.90;34.80
23618;DHT22;18207;32.078;34.818;2024-01-10T05:18:07;21.90;34.70
23618;DHT22;18207;32.078;34.818;2024-01-10T05:20:38;21.80;34.70
23618;DHT22;18207;32.078;34.818;2024-01-10T05:23:08;21.80;34.70
23618;DHT22;18207;32.078;34.818;2024-01-10T05:25:39;21.80;34.60
23618;DHT22;18207;32.078;34.818;2024-01-10T05:28:09;21.80;34.60
23618;DHT22;18207;32.078;34.818;2024-01-10T05:30:39;21.80;34.60
23618;DHT22;18207;32.078;34.818;2024-01-10T05:33:10;21.80;34.50
23618;DHT22;18207;32.078;34.818;2024-01-10T05:35:40;21.80;34.50
23618;DHT22;18207;32.078;34.818;2024-01-10T05:38:11;21.80;34.50
23618;DHT22;18207;32.078;34.818;2024-01-10T05:40:43;21.80;34.40
23618;DHT22;18207;32.078;34.818;2024-01-10T05:43:13;21.80;34.40
23618;DHT22;18207;32.078;34.818;2024-01-10T05:45:43;21.80;34.40
23618;DHT22;18207;32.078;34.818;2024-01-10T05:48:13;21.80;34.40
23618;DHT22;18207;32.078;34.818;2024-01-10T05:50:45;21.80;34.40
23618;DHT22;18207;32.078;34.818;2024-01-10T05:53:15;21.80;34.50
23618;DHT22;18207;32.078;34.818;2024-01-10T05:55:46;21.80;34.40
23618;DHT22;18207;32.078;34.818;2024-01-10T05:58:16;21.80;35.00
23618;DHT22;18207;32.078;34.818;2024-01-10T06:00:46;21.80;34.30
23618;DHT22;18207;32.078;34.818;2024-01-10T06:03:16;21.90;34.30
23618;DHT22;18207;32.078;34.818;2024-01-10T06:05:46;21.90;34.30
23618;DHT22;18207;32.078;34.818;2024-01-10T06:08:16;21.90;34.30
23618;DHT22;18207;32.078;34.818;2024-01-10T06:10:53;21.90;34.20
23618;DHT22;18207;32.078;34.818;2024-01-10T06:13:23;21.90;34.10
23618;DHT22;18207;32.078;34.818;2024-01-10T06:16:06;21.90;34.20
23618;DHT22;18207;32.078;34.818;2024-01-10T06:18:36;21.90;34.10
23618;DHT22;18207;32.078;34.818;2024-01-10T06:21:06;22.00;34.20
23618;DHT22;18207;32.078;34.818;2024-01-10T06:23:36;22.00;34.30
23618;DHT22;18207;32.078;34.818;2024-01-10T06:26:09;22.00;34.40
23618;DHT22;18207;32.078;34.818;2024-01-10T06:28:38;22.10;34.50
23618;DHT22;18207;32.078;34.818;2024-01-10T06:31:08;22.10;34.70
23618;DHT22;18207;32.078;34.818;2024-01-10T06:33:39;22.20;34.70
23618;DHT22;18207;32.078;34.818;2024-01-10T06:36:09;22.30;34.80
23618;DHT22;18207;32.078;34.818;2024-01-10T06:38:39;22.40;34.80
23618;DHT22;18207;32.078;34.818;2024-01-10T06:41:11;22.50;34.90
23618;DHT22;18207;32.078;34.818;2024-01-10T06:43:43;22.60;34.90
23618;DHT22;18207;32.078;34.818;2024-01-10T06:46:12;22.70;34.90
23618;DHT22;18207;32.078;34.818;2024-01-10T06:48:42;22.90;35.10
23618;DHT22;18207;32.078;34.818;2024-01-10T06:51:13;23.00;35.00
23618;DHT22;18207;32.078;34.818;2024-01-10T06:53:43;23.10;35.00
23618;DHT22;18207;32.078;34.818;2024-01-10T06:56:15;23.20;35.00
23618;DHT22;18207;32.078;34.818;2024-01-10T06:58:44;23.30;35.00
23618;DHT22;18207;32.078;34.818;2024-01-10T07:01:14;23.40;35.00
23618;DHT22;18207;32.078;34.818;2024-01-10T07:03:44;23.50;34.90
23618;DHT22;18207;32.078;34.818;2024-01-10T07:06:14;23.60;34.90
23618;DHT22;18207;32.078;34.818;2024-01-10T07:08:44;23.70;34.90
23618;DHT22;18207;32.078;34.818;2024-01-10T07:11:17;23.90;35.00
23618;DHT22;18207;32.078;34.818;2024-01-10T07:13:47;24.00;35.00
23618;DHT22;18207;32.078;34.818;2024-01-10T07:16:17;24.10;35.00
23618;DHT22;18207;32.078;34.818;2024-01-10T07:18:49;24.20;34.80
23618;DHT22;18207;32.078;34.818;2024-01-10T07:21:19;24.30;34.80
23618;DHT22;18207;32.078;34.818;2024-01-10T07:23:49;24.40;34.80
23618;DHT22;18207;32.078;34.818;2024-01-10T07:26:21;24.50;34.70
23618;DHT22;18207;32.078;34.818;2024-01-10T07:28:51;24.60;34.70
23618;DHT22;18207;32.078;34.818;2024-01-10T07:31:20;24.80;34.90
23618;DHT22;18207;32.078;34.818;2024-01-10T07:33:51;24.80;34.70
23618;DHT22;18207;32.078;34.818;2024-01-10T07:36:23;25.00;34.70
23618;DHT22;18207;32.078;34.818;2024-01-10T07:38:54;25.10;34.60
23618;DHT22;18207;32.078;34.818;2024-01-10T07:41:29;25.20;34.60
23618;DHT22;18207;32.078;34.818;2024-01-10T07:44:00;25.30;34.60
23618;DHT22;18207;32.078;34.818;2024-01-10T07:46:31;25.40;34.50
23618;DHT22;18207;32.078;34.818;2024-01-10T07:49:02;25.50;34.50
23618;DHT22;18207;32.078;34.818;2024-01-10T07:51:32;25.60;34.40
23618;DHT22;18207;32.078;34.818;2024-01-10T07:54:03;25.70;34.30
23618;DHT22;18207;32.078;34.818;2024-01-10T07:56:35;25.80;34.10
23618;DHT22;18207;32.078;34.818;2024-01-10T07:59:05;25.90;34.00
23618;DHT22;18207;32.078;34.818;2024-01-10T08:01:35;25.90;33.90
23618;DHT22;18207;32.078;34.818;2024-01-10T08:04:05;25.90;33.60
23618;DHT22;18207;32.078;34.818;2024-01-10T08:06:35;25.90;33.50
23618;DHT22;18207;32.078;34.818;2024-01-10T08:09:05;26.00;33.50
23618;DHT22;18207;32.078;34.818;2024-01-10T08:11:38;26.00;33.50
23618;DHT22;18207;32.078;34.818;2024-01-10T08:14:08;26.00;33.40
23618;DHT22;18207;32.078;34.818;2024-01-10T08:16:38;25.90;33.30
23618;DHT22;18207;32.078;34.818;2024-01-10T08:19:07;25.90;33.30
23618;DHT22;18207;32.078;34.818;2024-01-10T08:21:39;25.90;33.30
23618;DHT22;18207;32.078;34.818;2024-01-10T08:24:09;25.90;33.40
23618;DHT22;18207;32.078;34.818;2024-01-10T08:26:40;25.90;33.40
23618;DHT22;18207;32.078;34.818;2024-01-10T08:29:11;25.80;33.30
23618;DHT22;18207;32.078;34.818;2024-01-10T08:31:42;25.90;33.50
23618;DHT22;18207;32.078;34.818;2024-01-10T08:34:12;25.80;33.40
23618;DHT22;18207;32.078;34.818;2024-01-10T08:36:42;25.90;33.40
23618;DHT22;18207;32.078;34.818;2024-01-10T08:39:12;25.90;33.40
23618;DHT22;18207;32.078;34.818;2024-01-10T08:41:45;25.90;33.40
23618;DHT22;18207;32.078;34.818;2024-01-10T08:44:14;25.90;33.40
23618;DHT22;18207;32.078;34.818;2024-01-10T08:46:44;25.90;33.60
23618;DHT22;18207;32.078;34.818;2024-01-10T08:49:15;25.90;33.60
23618;DHT22;18207;32.078;34.818;2024-01-10T08:51:45;25.90;33.50
23618;DHT22;18207;32.078;34.818;2024-01-10T08:54:15;26.00;33.60
23618;DHT22;18207;32.078;34.818;2024-01-10T08:56:49;26.00;33.60
23618;DHT22;18207;32.078;34.818;2024-01-10T08:59:19;26.10;33.60
23618;DHT22;18207;32.078;34.818;2024-01-10T09:01:49;26.10;33.60
23618;DHT22;18207;32.078;34.818;2024-01-10T09:04:19;26.10;33.50
23618;DHT22;18207;32.078;34.818;2024-01-10T09:06:49;26.20;33.50
23618;DHT22;18207;32.078;34.818;2024-01-10T09:09:19;26.20;33.60
23618;DHT22;18207;32.078;34.818;2024-01-10T09:11:51;26.20;33.60
23618;DHT22;18207;32.078;34.818;2024-01-10T09:14:23;26.20;33.50
23618;DHT22;18207;32.078;34.818;2024-01-10T09:16:53;26.30;34.20
23618;DHT22;18207;32.078;34.818;2024-01-10T09:19:23;26.30;33.60
23618;DHT22;18207;32.078;34.818;2024-01-10T09:21:53;26.30;33.60
23618;DHT22;18207;32.078;34.818;2024-01-10T09:24:25;26.30;33.60
23618;DHT22;18207;32.078;34.818;2024-01-10T09:26:58;26.30;33.60
23618;DHT22;18207;32.078;34.818;2024-01-10T09:29:27;26.30;33.60
23618;DHT22;18207;32.078;34.818;2024-01-10T09:31:59;26.20;33.50
23618;DHT22;18207;32.078;34.818;2024-01-10T09:34:29;26.20;33.60
23618;DHT22;18207;32.078;34.818;2024-01-10T09:37:00;26.20;33.50
23618;DHT22;18207;32.078;34.818;2024-01-10T09:39:30;26.20;33.50
23618;DHT22;18207;32.078;34.818;2024-01-10T09:42:02;26.20;33.50
23618;DHT22;18207;32.078;34.818;2024-01-10T09:44:33;26.20;33.60
23618;DHT22;18207;32.078;34.818;2024-01-10T09:47:03;26.20;33.60
23618;DHT22;18207;32.078;34.818;2024-01-10T09:49:33;26.20;33.70
23618;DHT22;18207;32.078;34.818;2024-01-10T09:52:05;26.20;33.70
23618;DHT22;18207;32.078;34.818;2024-01-10T09:54:40;26.20;33.60
23618;DHT22;18207;32.078;34.818;2024-01-10T09:57:16;26.20;33.70
23618;DHT22;18207;32.078;34.818;2024-01-10T09:59:46;26.20;33.60
23618;DHT22;18207;32.078;34.818;2024-01-10T10:02:19;26.20;33.50
23618;DHT22;18207;32.078;34.818;2024-01-10T10:04:57;26.20;33.50
23618;DHT22;18207;32.078;34.818;2024-01-10T10:07:43;26.20;33.50
23618;DHT22;18207;32.078;34.818;2024-01-10T10:10:14;26.20;33.40
23618;DHT22;18207;32.078;34.818;2024-01-10T10:12:47;26.20;33.30
23618;DHT22;18207;32.078;34.818;2024-01-10T10:15:20;26.10;33.20
23618;DHT22;18207;32.078;34.818;2024-01-10T10:17:51;26.10;33.10
23618;DHT22;18207;32.078;34.818;2024-01-10T10:20:25;26.10;33.10
23618;DHT22;18207;32.078;34.818;2024-01-10T10:23:01;26.00;33.10
23618;DHT22;18207;32.078;34.818;2024-01-10T10:25:33;26.10;33.20
23618;DHT22;18207;32.078;34.818;2024-01-10T10:28:06;26.00;33.10
23618;DHT22;18207;32.078;34.818;2024-01-10T10:30:46;26.00;33.20
23618;DHT22;18207;32.078;34.818;2024-01-10T10:33:17;26.00;33.10
23618;DHT22;18207;32.078;34.818;2024-01-10T10:35:50;25.90;33.00
23618;DHT22;18207;32.078;34.818;2024-01-10T10:38:22;26.00;33.10
23618;DHT22;18207;32.078;34.818;2024-01-10T10:40:52;26.00;32.90
23618;DHT22;18207;32.078;34.818;2024-01-10T10:43:25;25.90;32.80
23618;DHT22;18207;32.078;34.818;2024-01-10T10:45:57;25.90;32.80
23618;DHT22;18207;32.078;34.818;2024-01-10T10:48:33;25.90;32.70
23618;DHT22;18207;32.078;34.818;2024-01-10T10:51:05;25.90;32.60
23618;DHT22;18207;32.078;34.818;2024-01-10T10:53:38;25.80;32.60
23618;DHT22;18207;32.078;34.818;2024-01-10T10:56:09;25.80;32.60
23618;DHT22;18207;32.078;34.818;2024-01-10T10:58:42;25.80;32.60
23618;DHT22;18207;32.078;34.818;2024-01-10T11:01:13;25.80;32.60
23618;DHT22;18207;32.078;34.818;2024-01-10T11:03:46;25.80;32.50
23618;DHT22;18207;32.078;34.818;2024-01-10T11:06:18;25.80;32.50
23618;DHT22;18207;32.078;34.818;2024-01-10T11:08:51;25.80;32.50
23618;DHT22;18207;32.078;34.818;2024-01-10T11:11:46;25.70;32.40
23618;DHT22;18207;32.078;34.818;2024-01-10T11:14:43;25.70;32.20
23618;DHT22;18207;32.078;34.818;2024-01-10T11:17:40;25.70;32.20
23618;DHT22;18207;32.078;34.818;2024-01-10T11:20:43;25.70;32.20
23618;DHT22;18207;32.078;34.818;2024-01-10T11:23:38;25.70;32.10
23618;DHT22;18207;32.078;34.818;2024-01-10T11:26:14;25.80;32.10
23618;DHT22;18207;32.078;34.818;2024-01-10T11:28:44;25.70;32.00
23618;DHT22;18207;32.078;34.818;2024-01-10T11:31:27;25.70;32.10
23618;DHT22;18207;32.078;34.818;2024-01-10T11:33:59;25.70;32.00
23618;DHT22;18207;32.078;34.818;2024-01-10T11:36:31;25.70;32.10
23618;DHT22;18207;32.078;34.818;2024-01-10T11:39:04;25.70;32.10
23618;DHT22;18207;32.078;34.818;2024-01-10T11:41:35;25.70;32.00
23618;DHT22;18207;32.078;34.818;2024-01-10T11:44:28;25.70;32.00
23618;DHT22;18207;32.078;34.818;2024-01-10T11:47:00;25.70;31.80
23618;DHT22;18207;32.078;34.818;2024-01-10T11:49:33;25.70;31.90
23618;DHT22;18207;32.078;34.818;2024-01-10T11:52:03;25.70;32.00
23618;DHT22;18207;32.078;34.818;2024-01-10T11:54:43;25.70;31.90
23618;DHT22;18207;32.078;34.818;2024-01-10T11:57:19;25.70;31.80
23618;DHT22;18207;32.078;34.818;2024-01-10T11:59:51;25.70;31.80
23618;DHT22;18207;32.078;34.818;2024-01-10T12:02:23;25.70;31.70
23618;DHT22;18207;32.078;34.818;2024-01-10T12:04:54;25.70;31.80
23618;DHT22;18207;32.078;34.818;2024-01-10T12:07:25;25.60;31.70
23618;DHT22;18207;32.078;34.818;2024-01-10T12:09:55;25.60;31.60
23618;DHT22;18207;32.078;34.818;2024-01-10T12:12:25;25.60;31.60
23618;DHT22;18207;32.078;34.818;2024-01-10T12:14:55;25.60;31.50
23618;DHT22;18207;32.078;34.818;2024-01-10T12:17:39;25.60;31.40
23618;DHT22;18207;32.078;34.818;2024-01-10T12:20:09;25.60;31.30
23618;DHT22;18207;32.078;34.818;2024-01-10T12:22:40;25.60;31.30
23618;DHT22;18207;32.078;34.818;2024-01-10T12:25:11;25.60;31.30
23618;DHT22;18207;32.078;34.818;2024-01-10T12:27:41;25.50;31.10
23618;DHT22;18207;32.078;34.818;2024-01-10T12:30:12;25.50;31.10
23618;DHT22;18207;32.078;34.818;2024-01-10T12:32:44;25.50;31.10
23618;DHT22;18207;32.078;34.818;2024-01-10T12:35:14;25.40;31.10
23618;DHT22;18207;32.078;34.818;2024-01-10T12:37:54;25.40;31.10
23618;DHT22;18207;32.078;34.818;2024-01-10T12:40:24;25.40;30.90
23618;DHT22;18207;32.078;34.818;2024-01-10T12:43:02;25.40;30.90
23618;DHT22;18207;32.078;34.818;2024-01-10T12:45:32;25.40;30.80
23618;DHT22;18207;32.078;34.818;2024-01-10T12:48:04;25.40;30.90
23618;DHT22;18207;32.078;34.818;2024-01-10T12:50:36;25.40;30.90
23618;DHT22;18207;32.078;34.818;2024-01-10T12:53:06;25.40;30.90
23618;DHT22;18207;32.078;34.818;2024-01-10T12:55:35;25.40;30.80
23618;DHT22;18207;32.078;34.818;2024-01-10T12:58:05;25.40;30.80
23618;DHT22;18207;32.078;34.818;2024-01-10T13:00:35;25.40;30.70
23618;DHT22;18207;32.078;34.818;2024-01-10T13:03:06;25.40;30.70
23618;DHT22;18207;32.078;34.818;2024-01-10T13:05:36;25.30;30.60
23618;DHT22;18207;32.078;34.818;2024-01-10T13:08:06;25.30;30.60
23618;DHT22;18207;32.078;34.818;2024-01-10T13:10:37;25.30;30.50
23618;DHT22;18207;32.078;34.818;2024-01-10T13:13:06;25.30;30.50
23618;DHT22;18207;32.078;34.818;2024-01-10T13:15:46;25.30;30.50
23618;DHT22;18207;32.078;34.818;2024-01-10T13:18:18;25.30;30.30
23618;DHT22;18207;32.078;34.818;2024-01-10T13:20:48;25.20;30.30
23618;DHT22;18207;32.078;34.818;2024-01-10T13:23:18;25.20;30.40
23618;DHT22;18207;32.078;34.818;2024-01-10T13:25:50;25.20;30.30
23618;DHT22;18207;32.078;34.818;2024-01-10T13:28:20;25.20;30.40
23618;DHT22;18207;32.078;34.818;2024-01-10T13:30:50;25.20;30.40
23618;DHT22;18207;32.078;34.818;2024-01-10T13:33:25;25.20;30.30
23618;DHT22;18207;32.078;34.818;2024-01-10T13:35:57;25.10;30.30
23618;DHT22;18207;32.078;34.818;2024-01-10T13:38:26;25.20;30.40
23618;DHT22;18207;32.078;34.818;2024-01-10T13:40:57;25.10;30.30
23618;DHT22;18207;32.078;34.818;2024-01-10T13:43:28;25.10;30.40
23618;DHT22;18207;32.078;34.818;2024-01-10T13:45:58;25.10;30.30
23618;DHT22;18207;32.078;34.818;2024-01-10T13:48:44;25.10;30.40
23618;DHT22;18207;32.078;34.818;2024-01-10T13:51:14;25.10;30.20
23618;DHT22;18207;32.078;34.818;2024-01-10T13:53:44;25.10;30.40
23618;DHT22;18207;32.078;34.818;2024-01-10T13:56:14;25.10;30.40
23618;DHT22;18207;32.078;34.818;2024-01-10T13:58:45;25.10;30.40
23618;DHT22;18207;32.078;34.818;2024-01-10T14:01:14;25.10;30.40
23618;DHT22;18207;32.078;34.818;2024-01-10T14:03:46;25.10;30.30
23618;DHT22;18207;32.078;34.818;2024-01-10T14:06:17;25.10;30.20
23618;DHT22;18207;32.078;34.818;2024-01-10T14:08:48;25.10;30.20
23618;DHT22;18207;32.078;34.818;2024-01-10T14:11:18;25.10;30.20
23618;DHT22;18207;32.078;34.818;2024-01-10T14:13:49;25.10;30.20
23618;DHT22;18207;32.078;34.818;2024-01-10T14:16:20;25.00;30.30
23618;DHT22;18207;32.078;34.818;2024-01-10T14:18:52;25.00;30.30
23618;DHT22;18207;32.078;34.818;2024-01-10T14:21:23;25.00;30.50
23618;DHT22;18207;32.078;34.818;2024-01-10T14:23:57;25.00;30.50
23618;DHT22;18207;32.078;34.818;2024-01-10T14:26:28;24.90;30.60
23618;DHT22;18207;32.078;34.818;2024-01-10T14:28:59;24.90;30.70
23618;DHT22;18207;32.078;34.818;2024-01-10T14:31:30;24.90;30.70
23618;DHT22;18207;32.078;34.818;2024-01-10T14:34:22;24.90;30.90
23618;DHT22;18207;32.078;34.818;2024-01-10T14:36:53;24.90;30.90
23618;DHT22;18207;32.078;34.818;2024-01-10T14:39:24;24.80;30.90
23618;DHT22;18207;32.078;34.818;2024-01-10T14:41:54;24.80;31.00
23618;DHT22;18207;32.078;34.818;2024-01-10T14:44:24;24.80;31.00
23618;DHT22;18207;32.078;34.818;2024-01-10T14:46:54;24.80;31.10
23618;DHT22;18207;32.078;34.818;2024-01-10T14:49:38;24.90;31.30
23618;DHT22;18207;32.078;34.818;2024-01-10T14:52:09;24.80;31.20
23618;DHT22;18207;32.078;34.818;2024-01-10T14:54:39;24.80;31.30
23618;DHT22;18207;32.078;34.818;2024-01-10T14:57:09;24.80;31.30
23618;DHT22;18207;32.078;34.818;2024-01-10T14:59:41;24.80;31.40
23618;DHT22;18207;32.078;34.818;2024-01-10T15:02:15;24.80;31.50
23618;DHT22;18207;32.078;34.818;2024-01-10T15:04:48;24.80;31.50
23618;DHT22;18207;32.078;34.818;2024-01-10T15:07:18;24.80;31.70
23618;DHT22;18207;32.078;34.818;2024-01-10T15:09:48;24.80;31.70
23618;DHT22;18207;32.078;34.818;2024-01-10T15:12:18;24.80;31.80
23618;DHT22;18207;32.078;34.818;2024-01-10T15:14:48;24.80;31.80
23618;DHT22;18207;32.078;34.818;2024-01-10T15:17:18;24.80;31.80
23618;DHT22;18207;32.078;34.818;2024-01-10T15:19:49;24.80;31.90
23618;DHT22;18207;32.078;34.818;2024-01-10T15:22:19;24.80;31.90
23618;DHT22;18207;32.078;34.818;2024-01-10T15:24:49;24.80;32.00
23618;DHT22;18207;32.078;34.818;2024-01-10T15:27:18;24.80;32.00
23618;DHT22;18207;32.078;34.818;2024-01-10T15:29:48;24.80;32.10
23618;DHT22;18207;32.078;34.818;2024-01-10T15:32:30;24.80;32.10
23618;DHT22;18207;32.078;34.818;2024-01-10T15:35:06;24.80;32.10
23618;DHT22;18207;32.078;34.818;2024-01-10T15:37:36;24.80;32.20
23618;DHT22;18207;32.078;34.818;2024-01-10T15:40:08;24.90;32.90
23618;DHT22;18207;32.078;34.818;2024-01-10T15:42:39;24.90;32.30